Glovertown, Canada
Current Conditions -  °F | °C
As of 4:00 PM on Tuesday 21 Oct 2014 (Local Time) from CYQX Reporting Station
Overcast Overcast  
Wind Chill: 43°   Ceiling: 3600
Heat Index: 48°   Visibility: 20mi
Dew Point: 37°   Wind: 14mph
Humidity: 66%   Direction: 280°W
Pressure: 30.03"   Gusts: NA
Location:  48.67°N, 54.05°W
Report Text: CYQX 211800Z 28012KT 20SM OVC036 09/03 A3003 RMK SC8 SLP174
Loading
Personal Weather Stations






























Interactive Weather Map
Tropical Storm Tracking
New forecast layout! Learn more

10-Day Weather Forecast

Advertisements
Track Severe Weather on mobile